La Moille, Illinois
Current Conditions -  °F | °C
As of 8:35 AM on Thursday 23 Oct 2014 (Local Time) from KVYS Reporting Station
Clear Clear  
Wind Chill: 40°   Ceiling: Unl
Heat Index: 43°   Visibility: 10mi
Dew Point: 37°   Wind: 5mph
Humidity: 81%   Direction: 160°SSE
Pressure: 30.21"   Gusts: NA
Location:  41.53°N, 89.28°W
Report Text: KVYS 231335Z AUTO 16004KT 10SM CLR 06/03 A3021 RMK AO2 T00590029
Loading
Personal Weather Stations






























Interactive Weather Map
Tropical Storm Tracking
New forecast layout! Learn more

10-Day Weather Forecast

Advertisements
Track Severe Weather on mobile